createdAt,value
2018-11-06T00:02:01.140Z,20.42
2018-11-06T00:04:27.196Z,20.35
2018-11-06T00:06:53.217Z,20.27
2018-11-06T00:09:19.268Z,20.27
2018-11-06T00:11:45.175Z,20.18
2018-11-06T00:14:11.129Z,20.14
2018-11-06T00:16:37.084Z,20.19
2018-11-06T00:19:03.078Z,20.27
2018-11-06T00:21:29.092Z,20.27
2018-11-06T00:23:55.049Z,20.29
2018-11-06T00:26:21.059Z,20.32
2018-11-06T00:28:47.005Z,20.31
2018-11-06T00:31:13.038Z,20.36
2018-11-06T00:33:39.013Z,20.39
2018-11-06T00:36:04.991Z,20.43
2018-11-06T00:38:30.968Z,20.49
2018-11-06T00:40:56.965Z,20.48
2018-11-06T00:43:22.980Z,20.52
2018-11-06T00:45:48.963Z,20.55
2018-11-06T00:48:14.928Z,20.58
2018-11-06T00:50:40.916Z,20.52
2018-11-06T00:53:06.871Z,20.43
2018-11-06T00:55:32.844Z,20.39
2018-11-06T00:57:58.799Z,20.42
2018-11-06T01:00:24.793Z,20.44
2018-11-06T01:02:51.580Z,20.56
2018-11-06T01:05:17.536Z,20.65
2018-11-06T01:07:43.592Z,20.55
2018-11-06T01:10:09.601Z,20.50
2018-11-06T01:12:35.915Z,20.42
2018-11-06T01:15:01.893Z,20.39
2018-11-06T01:17:27.861Z,20.33
2018-11-06T01:19:53.862Z,20.22
2018-11-06T01:22:19.821Z,20.15
2018-11-06T01:24:45.806Z,20.03
2018-11-06T01:27:11.754Z,20.00
2018-11-06T01:29:37.723Z,20.03
2018-11-06T01:32:03.793Z,20.18
2018-11-06T01:34:29.736Z,20.24
2018-11-06T01:36:55.728Z,20.24
2018-11-06T01:39:21.709Z,20.25
2018-11-06T01:41:47.689Z,20.30
2018-11-06T01:44:13.647Z,20.33
2018-11-06T01:46:39.615Z,20.41
2018-11-06T01:49:05.580Z,20.43
2018-11-06T01:51:31.561Z,20.38
2018-11-06T01:53:57.526Z,20.37
2018-11-06T01:56:23.505Z,20.35
2018-11-06T01:58:49.489Z,20.44
2018-11-06T02:01:15.577Z,20.49
2018-11-06T02:03:41.540Z,20.52
2018-11-06T02:06:07.520Z,20.51
2018-11-06T02:08:33.536Z,20.54
2018-11-06T02:10:59.507Z,20.56
2018-11-06T02:13:25.463Z,20.48
2018-11-06T02:15:51.445Z,20.45
2018-11-06T02:18:17.400Z,20.41
2018-11-06T02:20:43.345Z,20.36
2018-11-06T02:23:09.295Z,20.42
2018-11-06T02:25:35.238Z,20.46
2018-11-06T02:28:01.223Z,20.55
2018-11-06T02:30:27.191Z,20.59
2018-11-06T02:32:53.131Z,20.45
2018-11-06T02:35:19.113Z,20.49
2018-11-06T02:37:45.089Z,20.52
2018-11-06T02:40:11.048Z,20.44
2018-11-06T02:42:37.009Z,20.29
2018-11-06T02:45:02.998Z,20.15
2018-11-06T02:47:28.976Z,20.19
2018-11-06T02:49:54.919Z,20.21
2018-11-06T02:52:20.889Z,20.10
2018-11-06T02:54:46.896Z,19.98
2018-11-06T02:57:12.865Z,19.93
2018-11-06T02:59:38.833Z,19.93
2018-11-06T03:02:05.375Z,19.91
2018-11-06T03:04:31.323Z,19.93
2018-11-06T03:06:57.289Z,20.04
2018-11-06T03:09:23.256Z,20.03
2018-11-06T03:11:49.242Z,20.13
2018-11-06T03:14:15.208Z,20.17
2018-11-06T03:16:41.248Z,20.23
2018-11-06T03:19:07.207Z,20.21
2018-11-06T03:21:33.149Z,20.19
2018-11-06T03:23:59.128Z,20.19
2018-11-06T03:26:25.076Z,20.18
2018-11-06T03:28:51.072Z,20.28
2018-11-06T03:31:17.031Z,20.29
2018-11-06T03:33:46.544Z,20.20
2018-11-06T03:36:12.493Z,20.23
2018-11-06T03:38:38.449Z,20.27
2018-11-06T03:41:04.408Z,20.26
2018-11-06T03:43:30.384Z,20.30
2018-11-06T03:45:56.327Z,20.24
2018-11-06T03:48:22.333Z,20.22
2018-11-06T03:50:48.289Z,20.16
2018-11-06T03:53:14.270Z,20.18
2018-11-06T03:55:40.261Z,20.11
2018-11-06T03:58:06.226Z,20.08
2018-11-06T04:00:32.804Z,20.01
2018-11-06T04:02:58.804Z,20.10
2018-11-06T04:05:24.770Z,20.05
2018-11-06T04:07:50.732Z,19.98
2018-11-06T04:10:16.796Z,19.96
2018-11-06T04:12:42.814Z,19.97
2018-11-06T04:15:11.951Z,20.04
2018-11-06T04:17:38.034Z,20.05
2018-11-06T04:20:06.022Z,20.11
2018-11-06T04:22:32.038Z,20.17
2018-11-06T04:24:58.715Z,20.14
2018-11-06T04:27:25.694Z,20.23
2018-11-06T04:29:51.647Z,20.30
2018-11-06T04:32:17.660Z,20.35
2018-11-06T04:34:44.561Z,20.31
2018-11-06T04:37:10.510Z,20.34
2018-11-06T04:39:36.480Z,20.37
2018-11-06T04:42:02.455Z,20.44
2018-11-06T04:44:28.412Z,20.42
2018-11-06T04:46:54.372Z,20.34
2018-11-06T04:49:20.598Z,20.27
2018-11-06T04:51:46.572Z,20.21
2018-11-06T04:54:12.605Z,20.25
2018-11-06T04:56:38.565Z,20.33
2018-11-06T04:59:04.752Z,20.41
2018-11-06T05:01:30.689Z,20.47
2018-11-06T05:03:56.654Z,20.51
2018-11-06T05:06:22.617Z,20.52
2018-11-06T05:08:48.579Z,20.42
2018-11-06T05:11:14.536Z,20.37
2018-11-06T05:13:40.509Z,20.44
2018-11-06T05:16:06.454Z,20.46
2018-11-06T05:18:32.418Z,20.48
2018-11-06T05:20:58.379Z,20.50
2018-11-06T05:23:24.325Z,20.44
2018-11-06T05:25:50.271Z,20.41
2018-11-06T05:28:16.205Z,20.43
2018-11-06T05:30:42.182Z,20.48
2018-11-06T05:33:08.130Z,20.49
2018-11-06T05:35:34.106Z,20.39
2018-11-06T05:38:00.075Z,20.34
2018-11-06T05:40:26.021Z,20.36
2018-11-06T05:42:51.966Z,20.35
2018-11-06T05:45:17.912Z,20.24
2018-11-06T05:47:43.882Z,20.21
2018-11-06T05:50:09.851Z,20.07
2018-11-06T05:52:35.794Z,20.06
2018-11-06T05:55:01.739Z,20.09
2018-11-06T05:57:27.698Z,20.14
2018-11-06T05:59:53.668Z,20.14
2018-11-06T06:02:19.633Z,20.19
2018-11-06T06:04:45.937Z,20.12
2018-11-06T06:07:11.900Z,20.06
2018-11-06T06:09:37.853Z,20.05
2018-11-06T06:12:03.813Z,20.11
2018-11-06T06:14:29.772Z,20.09
2018-11-06T06:16:55.845Z,19.84
2018-11-06T06:19:21.735Z,19.87
2018-11-06T06:21:47.687Z,19.96
2018-11-06T06:24:13.621Z,20.06
2018-11-06T06:26:39.592Z,20.04
2018-11-06T06:29:05.524Z,20.13
2018-11-06T06:31:31.524Z,20.18
2018-11-06T06:33:57.524Z,20.08
2018-11-06T06:36:23.481Z,20.00
2018-11-06T06:38:49.565Z,20.01
2018-11-06T06:41:15.469Z,19.97
2018-11-06T06:43:41.412Z,19.88
2018-11-06T06:46:07.449Z,19.94
2018-11-06T06:48:33.363Z,19.96
2018-11-06T06:50:59.347Z,20.11
2018-11-06T06:53:25.327Z,20.13
2018-11-06T06:55:51.309Z,20.24
2018-11-06T06:58:17.423Z,20.32
2018-11-06T07:00:43.401Z,20.44
2018-11-06T07:03:09.365Z,20.54
2018-11-06T07:05:35.321Z,20.66
2018-11-06T07:08:01.277Z,20.71
2018-11-06T07:10:27.229Z,20.67
2018-11-06T07:12:53.235Z,20.68
2018-11-06T07:15:19.168Z,20.66
2018-11-06T07:17:45.128Z,20.68
2018-11-06T07:20:11.083Z,20.78
2018-11-06T07:22:37.013Z,20.81
2018-11-06T07:25:02.998Z,20.75
2018-11-06T07:27:28.977Z,20.66
2018-11-06T07:29:54.949Z,20.84
2018-11-06T07:32:20.942Z,20.90
2018-11-06T07:34:47.005Z,20.91
2018-11-06T07:37:12.859Z,20.96
2018-11-06T07:39:38.824Z,21.04
2018-11-06T07:42:04.781Z,20.97
2018-11-06T07:44:30.744Z,21.11
2018-11-06T07:46:56.686Z,21.14
2018-11-06T07:49:22.644Z,21.25
2018-11-06T07:51:48.623Z,21.31
2018-11-06T07:54:14.562Z,21.39
2018-11-06T07:56:40.509Z,21.47
2018-11-06T07:59:06.442Z,21.37
2018-11-06T08:01:32.376Z,21.24
2018-11-06T08:03:58.331Z,21.26
2018-11-06T08:06:24.369Z,21.35
2018-11-06T08:08:50.297Z,21.37
2018-11-06T08:11:16.269Z,21.28
2018-11-06T08:13:42.224Z,21.34
2018-11-06T08:16:08.200Z,21.20
2018-11-06T08:18:34.134Z,21.23
2018-11-06T08:21:00.090Z,21.32
2018-11-06T08:23:26.030Z,21.32
2018-11-06T08:25:51.998Z,21.08
2018-11-06T08:28:17.949Z,21.00
2018-11-06T08:30:44.086Z,20.89
2018-11-06T08:33:09.914Z,20.96
2018-11-06T08:35:35.875Z,20.79
2018-11-06T08:38:01.839Z,20.82
2018-11-06T08:40:27.798Z,20.83
2018-11-06T08:42:53.757Z,20.84
2018-11-06T08:45:19.711Z,20.93
2018-11-06T08:47:45.665Z,20.93
2018-11-06T08:50:11.644Z,20.99
2018-11-06T08:52:37.591Z,20.96
2018-11-06T08:55:03.534Z,20.86
2018-11-06T08:57:29.574Z,20.91
2018-11-06T08:59:55.551Z,20.87
2018-11-06T09:02:21.535Z,20.79
2018-11-06T09:04:47.481Z,20.82
2018-11-06T09:07:13.418Z,20.97
2018-11-06T09:09:39.383Z,21.13
2018-11-06T09:12:05.396Z,21.27
2018-11-06T09:14:31.371Z,21.29
2018-11-06T09:16:57.401Z,21.37
2018-11-06T09:19:23.292Z,21.39
2018-11-06T09:21:49.264Z,21.48
2018-11-06T09:24:15.327Z,21.61
2018-11-06T09:26:41.291Z,21.74
2018-11-06T09:29:07.257Z,21.83
2018-11-06T09:31:33.217Z,21.85
2018-11-06T09:33:59.160Z,21.83
2018-11-06T09:36:25.145Z,21.88
2018-11-06T09:38:51.865Z,21.88
2018-11-06T09:41:17.837Z,21.80
2018-11-06T09:43:43.856Z,21.72
2018-11-06T09:46:09.867Z,21.71
2018-11-06T09:48:35.830Z,21.74
2018-11-06T09:51:01.802Z,21.65
2018-11-06T09:53:27.804Z,21.69
2018-11-06T09:55:53.886Z,21.83
2018-11-06T09:58:19.956Z,21.90
2018-11-06T10:00:45.889Z,21.81
2018-11-06T10:03:11.858Z,21.79
2018-11-06T10:05:37.950Z,21.70
2018-11-06T10:08:03.924Z,21.82
2018-11-06T10:10:29.884Z,21.91
2018-11-06T10:12:55.882Z,21.90
2018-11-06T10:15:21.890Z,21.74
2018-11-06T10:17:47.844Z,21.61
2018-11-06T10:20:13.784Z,21.49
2018-11-06T10:22:39.756Z,21.39
2018-11-06T10:25:05.718Z,21.29
2018-11-06T10:27:31.721Z,21.27
2018-11-06T10:29:57.688Z,21.35
2018-11-06T10:32:23.657Z,21.43
2018-11-06T10:34:49.628Z,21.47
2018-11-06T10:37:15.582Z,21.48
2018-11-06T10:39:41.563Z,21.55
2018-11-06T10:42:07.551Z,21.50
2018-11-06T10:44:33.517Z,21.45
2018-11-06T10:46:59.472Z,21.39
2018-11-06T10:49:25.442Z,21.45
2018-11-06T10:51:51.472Z,21.43
2018-11-06T10:54:17.418Z,21.31
2018-11-06T10:56:43.415Z,21.32
2018-11-06T10:59:09.390Z,21.48
2018-11-06T11:01:35.379Z,21.72
2018-11-06T11:04:01.391Z,21.66
2018-11-06T11:06:27.320Z,21.63
2018-11-06T11:08:53.284Z,21.66
2018-11-06T11:11:19.262Z,21.65
2018-11-06T11:13:45.250Z,21.64
2018-11-06T11:16:11.215Z,21.66
2018-11-06T11:18:37.199Z,21.79
2018-11-06T11:21:03.150Z,21.83
2018-11-06T11:23:29.130Z,21.77
2018-11-06T11:25:55.131Z,21.87
2018-11-06T11:28:21.125Z,21.99
2018-11-06T11:30:47.154Z,21.92
2018-11-06T11:33:13.140Z,21.89
2018-11-06T11:35:39.105Z,21.92
2018-11-06T11:38:05.077Z,21.88
2018-11-06T11:40:31.042Z,21.90
2018-11-06T11:42:57.002Z,21.88
2018-11-06T11:45:22.953Z,21.86
2018-11-06T11:47:48.893Z,21.86
2018-11-06T11:50:14.869Z,21.86
2018-11-06T11:52:40.836Z,21.85
2018-11-06T11:55:06.818Z,21.88
2018-11-06T11:57:32.800Z,21.83
2018-11-06T11:59:58.806Z,21.85
2018-11-06T12:02:24.715Z,21.89
2018-11-06T12:04:52.690Z,21.93
2018-11-06T12:07:18.618Z,21.95
2018-11-06T12:09:44.587Z,21.90
2018-11-06T12:12:10.547Z,21.85
2018-11-06T12:14:36.510Z,21.85
2018-11-06T12:17:02.472Z,21.78
2018-11-06T12:19:28.435Z,21.75
2018-11-06T12:21:54.470Z,21.81
2018-11-06T12:24:20.515Z,21.84
2018-11-06T12:26:47.382Z,21.89
2018-11-06T12:29:13.554Z,21.88
2018-11-06T12:31:39.767Z,21.79
2018-11-06T12:34:10.086Z,21.86
2018-11-06T12:36:37.478Z,21.97
2018-11-06T12:39:08.366Z,21.91
2018-11-06T12:41:35.290Z,21.82
2018-11-06T12:44:01.276Z,21.91
2018-11-06T12:46:27.237Z,21.92
2018-11-06T12:48:54.243Z,21.88
2018-11-06T12:51:20.208Z,21.88
2018-11-06T12:53:46.256Z,21.86
2018-11-06T12:56:12.305Z,21.88
2018-11-06T12:58:38.214Z,21.95
2018-11-06T13:01:04.191Z,22.01
2018-11-06T13:03:30.205Z,21.98
2018-11-06T13:05:56.135Z,22.03
2018-11-06T13:08:22.087Z,22.05
2018-11-06T13:10:48.124Z,21.87
2018-11-06T13:20:48.667Z,22.07
2018-11-06T13:23:14.604Z,22.08
2018-11-06T13:25:40.788Z,22.10
2018-11-06T13:28:06.719Z,22.00
2018-11-06T13:30:32.711Z,22.00
2018-11-06T13:35:29.942Z,21.83
2018-11-06T13:37:55.928Z,21.88
2018-11-06T13:40:21.878Z,21.92
2018-11-06T13:42:47.982Z,21.92
2018-11-06T13:45:14.087Z,21.77
2018-11-06T13:47:43.502Z,21.69
2018-11-06T13:52:41.284Z,21.86
2018-11-06T13:55:07.232Z,21.90
2018-11-06T13:57:33.189Z,21.86
2018-11-06T13:59:59.157Z,21.86
2018-11-06T14:02:25.124Z,21.78
2018-11-06T14:04:51.137Z,21.86
2018-11-06T14:07:17.083Z,21.84
2018-11-06T14:09:43.056Z,21.78
2018-11-06T14:12:09.006Z,21.76
2018-11-06T14:14:34.959Z,21.73
2018-11-06T14:17:00.929Z,21.73
2018-11-06T14:19:26.905Z,21.60
2018-11-06T14:21:52.901Z,21.68
2018-11-06T14:24:18.887Z,21.77
2018-11-06T14:26:44.931Z,21.83
2018-11-06T14:29:10.874Z,21.77
2018-11-06T14:31:36.839Z,21.65
2018-11-06T14:34:02.799Z,21.72
2018-11-06T14:36:28.778Z,21.71
2018-11-06T14:38:54.734Z,21.69
2018-11-06T14:41:20.717Z,21.68
2018-11-06T14:43:46.682Z,21.61
2018-11-06T14:46:12.655Z,21.69
2018-11-06T14:48:38.785Z,21.73
2018-11-06T14:51:05.317Z,21.85
2018-11-06T14:53:31.305Z,21.85
2018-11-06T14:55:57.327Z,21.93
2018-11-06T14:58:26.918Z,21.97
2018-11-06T15:00:52.870Z,21.94
2018-11-06T15:03:18.808Z,21.91
2018-11-06T15:05:44.850Z,21.87
2018-11-06T15:08:10.754Z,21.94
2018-11-06T15:10:36.698Z,21.94
2018-11-06T15:13:02.738Z,21.91
2018-11-06T15:15:28.693Z,21.95
2018-11-06T15:17:54.651Z,21.94
2018-11-06T15:20:20.605Z,21.99
2018-11-06T15:25:17.901Z,22.08
2018-11-06T15:27:43.861Z,22.15
2018-11-06T15:30:09.889Z,22.21
2018-11-06T15:32:35.862Z,22.11
2018-11-06T15:35:01.817Z,22.16
2018-11-06T15:37:28.804Z,22.19
2018-11-06T15:39:54.758Z,21.37
2018-11-06T15:42:20.824Z,22.11
2018-11-06T15:44:46.775Z,22.11
2018-11-06T15:47:12.795Z,22.07
2018-11-06T15:49:38.789Z,21.93
2018-11-06T15:52:04.787Z,21.85
2018-11-06T15:54:30.822Z,21.67
2018-11-06T15:56:56.737Z,21.60
2018-11-06T15:59:22.701Z,21.64
2018-11-06T16:01:48.712Z,21.56
2018-11-06T16:04:14.697Z,21.55
2018-11-06T16:06:40.704Z,21.53
2018-11-06T16:09:06.736Z,21.55
2018-11-06T16:11:33.782Z,21.64
2018-11-06T16:13:59.753Z,21.72
2018-11-06T16:16:27.797Z,21.76
2018-11-06T16:18:53.877Z,21.85
2018-11-06T16:21:19.853Z,21.95
2018-11-06T16:23:45.861Z,22.02
2018-11-06T16:26:12.869Z,22.04
2018-11-06T16:28:38.911Z,22.05
2018-11-06T16:31:04.976Z,22.03
2018-11-06T16:33:31.116Z,21.99
2018-11-06T16:35:57.127Z,21.97
2018-11-06T16:38:23.750Z,21.97
2018-11-06T16:40:51.804Z,21.90
2018-11-06T16:43:17.760Z,21.82
2018-11-06T16:45:43.724Z,21.81
2018-11-06T16:48:09.835Z,21.78
2018-11-06T16:50:35.772Z,21.72
2018-11-06T16:53:01.856Z,21.69
2018-11-06T16:55:27.833Z,21.71
2018-11-06T16:57:53.825Z,21.65
2018-11-06T17:00:19.923Z,21.63
2018-11-06T17:02:48.047Z,21.62
2018-11-06T17:05:14.020Z,21.55
2018-11-06T17:07:39.984Z,21.51
2018-11-06T17:10:05.978Z,21.46
2018-11-06T17:12:33.993Z,21.42
2018-11-06T17:14:59.974Z,21.41
2018-11-06T17:17:26.030Z,21.36
2018-11-06T17:19:51.958Z,21.39
2018-11-06T17:22:19.934Z,21.40
2018-11-06T17:24:45.973Z,21.37
2018-11-06T17:27:11.922Z,21.42
2018-11-06T17:29:37.938Z,21.35
2018-11-06T17:32:03.889Z,21.42
2018-11-06T17:34:29.839Z,21.43
2018-11-06T17:36:55.831Z,21.37
2018-11-06T17:39:21.878Z,21.38
2018-11-06T17:41:47.852Z,21.39
2018-11-06T17:44:14.022Z,21.31
2018-11-06T17:46:40.020Z,21.28
2018-11-06T17:49:05.992Z,21.21
2018-11-06T17:51:31.935Z,21.18
2018-11-06T17:53:57.878Z,21.14
2018-11-06T17:56:23.936Z,21.11
2018-11-06T17:58:49.964Z,21.16
2018-11-06T18:01:15.936Z,21.23
2018-11-06T18:03:41.908Z,21.25
2018-11-06T18:06:07.989Z,21.29
2018-11-06T18:08:34.007Z,21.21
2018-11-06T18:11:02.375Z,21.19
2018-11-06T18:13:28.511Z,21.13
2018-11-06T18:15:55.177Z,21.09
2018-11-06T18:18:23.479Z,21.04
2018-11-06T18:20:49.607Z,21.03
2018-11-06T18:23:17.342Z,21.03
2018-11-06T18:25:50.129Z,20.93
2018-11-06T18:28:17.530Z,20.96
2018-11-06T18:30:44.729Z,20.97
2018-11-06T18:33:11.602Z,20.98
2018-11-06T18:35:41.184Z,20.95
2018-11-06T18:38:07.538Z,20.93
2018-11-06T18:40:34.964Z,20.91
2018-11-06T18:43:02.070Z,20.88
2018-11-06T18:45:28.982Z,20.83
2018-11-06T18:47:58.764Z,20.86
2018-11-06T18:50:26.018Z,20.87
2018-11-06T18:52:52.209Z,20.86
2018-11-06T18:55:19.020Z,20.90
2018-11-06T18:57:45.256Z,20.84
2018-11-06T19:00:11.701Z,20.83
2018-11-06T19:02:38.899Z,20.79
2018-11-06T19:05:05.051Z,20.75
2018-11-06T19:07:32.892Z,20.74
2018-11-06T19:09:59.040Z,20.81
2018-11-06T19:12:27.110Z,20.83
2018-11-06T19:14:53.240Z,20.79
2018-11-06T19:17:19.454Z,20.78
2018-11-06T19:19:45.547Z,20.81
2018-11-06T19:22:14.826Z,20.85
2018-11-06T19:24:41.634Z,20.85
2018-11-06T19:27:10.868Z,20.89
2018-11-06T19:29:37.037Z,20.96
2018-11-06T19:34:35.982Z,21.14
2018-11-06T19:37:02.177Z,21.12
2018-11-06T19:39:29.018Z,21.20
2018-11-06T19:41:55.147Z,21.31
2018-11-06T19:44:21.281Z,21.32
2018-11-06T19:46:47.833Z,21.36
2018-11-06T20:34:07.055Z,21.53
2018-11-06T20:36:33.098Z,21.48
2018-11-06T20:39:01.360Z,21.51
2018-11-06T20:41:29.780Z,21.52
2018-11-06T20:43:56.972Z,21.42
2018-11-06T20:46:23.143Z,21.49
2018-11-06T20:48:52.613Z,21.55
2018-11-06T20:53:51.088Z,21.41
2018-11-06T20:56:17.130Z,21.40
2018-11-06T20:58:45.259Z,21.42
2018-11-06T21:01:14.558Z,21.45
2018-11-06T21:03:40.742Z,21.40
2018-11-06T21:10:44.859Z,20.95
2018-11-06T21:13:19.555Z,21.06
2018-11-06T21:15:46.621Z,21.18
2018-11-06T21:20:44.602Z,21.44
2018-11-06T21:23:13.316Z,21.49
2018-11-06T21:28:11.651Z,21.50
2018-11-06T21:30:37.912Z,21.52
2018-11-06T21:35:36.666Z,21.48
2018-11-06T21:40:41.060Z,21.40
2018-11-06T21:45:38.930Z,21.15
2018-11-06T21:48:06.022Z,21.03
2018-11-06T21:50:38.980Z,21.03
2018-11-06T21:53:05.149Z,21.08
2018-11-06T21:55:31.385Z,21.09
2018-11-06T21:57:57.519Z,21.09
2018-11-06T22:02:55.675Z,20.97
2018-11-06T22:05:23.001Z,21.01
2018-11-06T22:07:49.296Z,21.07
2018-11-06T22:10:15.670Z,21.03
2018-11-06T22:12:52.925Z,20.98
2018-11-06T22:17:54.057Z,20.95
2018-11-06T22:39:00.649Z,20.89
2018-11-06T22:41:29.656Z,20.86
2018-11-06T22:43:57.141Z,20.84
2018-11-06T22:49:12.995Z,20.83
2018-11-06T22:51:38.986Z,20.84
2018-11-06T22:54:05.952Z,20.91
2018-11-06T22:59:07.737Z,20.90
2018-11-06T23:15:22.096Z,19.07
2018-11-06T23:17:54.236Z,19.62
2018-11-06T23:20:22.609Z,20.06
2018-11-06T23:22:50.934Z,20.28
2018-11-06T23:25:18.057Z,20.47
2018-11-06T23:27:44.274Z,20.62
2018-11-06T23:30:11.528Z,20.77
2018-11-06T23:35:33.643Z,20.80
2018-11-06T23:38:01.060Z,20.87
2018-11-06T23:40:29.154Z,20.86
2018-11-06T23:42:56.216Z,20.84
2018-11-06T23:45:23.849Z,20.81
2018-11-06T23:50:22.492Z,20.68
2018-11-06T23:52:48.670Z,20.77
2018-11-06T23:55:15.918Z,20.76
2018-11-06T23:57:42.205Z,20.80
